createdAt,value
2022-08-16T00:02:57.316Z,22.09
2022-08-16T00:06:59.948Z,22.12
2022-08-16T00:11:03.008Z,22.06
2022-08-16T00:15:11.528Z,22.10
2022-08-16T00:19:23.637Z,22.06
2022-08-16T00:23:34.455Z,22.07
2022-08-16T00:27:43.464Z,21.99
2022-08-16T00:32:00.786Z,21.95
2022-08-16T00:36:07.959Z,21.90
2022-08-16T00:40:34.386Z,22.05
2022-08-16T00:44:38.225Z,22.02
2022-08-16T00:48:45.447Z,22.04
2022-08-16T00:52:50.909Z,22.09
2022-08-16T00:56:58.053Z,21.92
2022-08-16T01:01:02.821Z,21.90
2022-08-16T01:05:11.724Z,21.84
2022-08-16T01:09:14.834Z,21.66
2022-08-16T01:13:26.550Z,21.56
2022-08-16T01:17:36.912Z,21.45
2022-08-16T01:21:51.730Z,21.61
2022-08-16T01:25:59.912Z,21.62
2022-08-16T01:30:26.292Z,21.48
2022-08-16T01:34:31.594Z,21.60
2022-08-16T01:38:53.198Z,21.41
2022-08-16T01:43:01.694Z,21.28
2022-08-16T01:47:04.914Z,21.13
2022-08-16T01:51:09.391Z,21.10
2022-08-16T01:55:18.915Z,21.01
2022-08-16T01:59:24.187Z,20.93
2022-08-16T02:03:26.668Z,20.74
2022-08-16T02:07:30.641Z,20.90
2022-08-16T02:11:48.536Z,20.80
2022-08-16T02:15:55.318Z,20.94
2022-08-16T02:20:00.391Z,20.58
2022-08-16T02:24:04.196Z,20.49
2022-08-16T02:28:26.389Z,20.62
2022-08-16T02:32:49.017Z,20.54
2022-08-16T02:36:53.385Z,20.36
2022-08-16T02:41:00.739Z,20.18
2022-08-16T02:45:06.661Z,20.16
2022-08-16T02:49:13.495Z,20.12
2022-08-16T02:53:23.703Z,20.14
2022-08-16T02:57:27.230Z,20.23
2022-08-16T03:01:37.049Z,20.12
2022-08-16T03:05:50.045Z,20.12
2022-08-16T03:10:00.475Z,20.04
2022-08-16T03:14:07.663Z,20.17
2022-08-16T03:18:12.528Z,20.04
2022-08-16T03:22:27.932Z,20.03
2022-08-16T03:26:32.698Z,20.03
2022-08-16T03:30:37.024Z,20.02
2022-08-16T03:34:41.932Z,20.01
2022-08-16T03:38:54.487Z,20.15
2022-08-16T03:43:18.917Z,20.05
2022-08-16T03:47:23.203Z,20.31
2022-08-16T03:51:28.923Z,20.34
2022-08-16T03:55:45.364Z,20.36
2022-08-16T03:59:51.002Z,20.26
2022-08-16T04:03:55.210Z,20.45
2022-08-16T04:07:58.678Z,20.31
2022-08-16T04:12:02.955Z,20.51
2022-08-16T04:16:06.471Z,20.56
2022-08-16T04:20:29.483Z,20.54
2022-08-16T04:24:38.327Z,20.38
2022-08-16T04:28:53.427Z,20.47
2022-08-16T04:33:00.579Z,20.43
2022-08-16T04:37:07.189Z,20.53
2022-08-16T04:41:14.084Z,20.65
2022-08-16T04:45:18.504Z,20.82
2022-08-16T04:49:46.236Z,20.77
2022-08-16T04:53:52.653Z,20.83
2022-08-16T04:57:57.548Z,20.90
2022-08-16T05:02:01.042Z,21.10
2022-08-16T05:06:05.213Z,21.46
2022-08-16T05:10:19.947Z,21.66
2022-08-16T05:14:45.429Z,21.78
2022-08-16T05:18:53.982Z,21.94
2022-08-16T05:23:00.069Z,22.12
2022-08-16T05:27:11.116Z,22.22
2022-08-16T05:31:16.695Z,22.33
2022-08-16T05:35:19.521Z,22.37
2022-08-16T05:39:47.475Z,22.40
2022-08-16T05:43:52.737Z,22.44
2022-08-16T05:48:13.032Z,22.40
2022-08-16T05:52:31.622Z,22.49
2022-08-16T05:56:38.444Z,22.58
2022-08-16T06:00:42.303Z,22.61
2022-08-16T06:04:45.026Z,22.66
2022-08-16T06:08:51.997Z,22.77
2022-08-16T06:12:55.975Z,22.90
2022-08-16T06:16:59.259Z,23.03
2022-08-16T06:21:10.058Z,23.14
2022-08-16T06:25:15.209Z,23.42
2022-08-16T06:29:17.675Z,23.66
2022-08-16T06:33:22.775Z,23.53
2022-08-16T06:37:26.984Z,23.80
2022-08-16T06:41:44.745Z,24.03
2022-08-16T06:46:37.071Z,24.13
2022-08-16T06:50:48.295Z,24.15
2022-08-16T06:54:51.164Z,24.30
2022-08-16T06:58:55.020Z,24.34
2022-08-16T07:03:01.524Z,24.78
2022-08-16T07:07:24.298Z,24.98
2022-08-16T07:11:48.238Z,25.43
2022-08-16T07:16:04.420Z,25.51
2022-08-16T07:20:35.158Z,25.34
2022-08-16T07:24:32.545Z,25.49
2022-08-16T07:28:48.157Z,25.69
2022-08-16T07:32:53.793Z,25.76
2022-08-16T07:36:57.995Z,25.22
2022-08-16T07:41:10.942Z,25.15
2022-08-16T07:45:19.417Z,25.52
2022-08-16T07:49:26.220Z,25.93
2022-08-16T07:53:43.704Z,25.99
2022-08-16T07:57:59.708Z,26.14
2022-08-16T08:02:06.833Z,26.53
2022-08-16T08:06:24.907Z,26.68
2022-08-16T08:10:29.409Z,26.85
2022-08-16T08:14:35.106Z,27.11
2022-08-16T08:18:37.276Z,27.36
2022-08-16T08:22:43.314Z,27.46
2022-08-16T08:26:50.288Z,27.69
2022-08-16T08:31:00.700Z,27.76
2022-08-16T08:35:07.746Z,27.49
2022-08-16T08:39:13.400Z,27.06
2022-08-16T08:43:18.433Z,26.62
2022-08-16T08:47:27.835Z,26.98
2022-08-16T08:51:35.790Z,26.86
2022-08-16T08:55:39.473Z,26.94
2022-08-16T08:59:41.722Z,26.67
2022-08-16T09:03:48.967Z,26.65
2022-08-16T09:08:00.386Z,26.25
2022-08-16T09:12:35.569Z,26.37
2022-08-16T09:17:03.407Z,26.27
2022-08-16T09:21:09.500Z,26.49
2022-08-16T09:25:14.602Z,26.59
2022-08-16T09:29:24.187Z,26.52
2022-08-16T09:33:42.141Z,26.60
2022-08-16T09:37:44.495Z,26.70
2022-08-16T09:42:03.364Z,27.02
2022-08-16T09:46:44.772Z,27.04
2022-08-16T09:50:37.269Z,26.97
2022-08-16T09:54:44.448Z,26.79
2022-08-16T09:59:03.646Z,26.65
2022-08-16T10:03:09.172Z,26.59
2022-08-16T10:07:15.836Z,26.65
2022-08-16T10:11:49.984Z,26.64
2022-08-16T10:16:00.219Z,26.73
2022-08-16T10:20:02.613Z,26.72
2022-08-16T10:24:08.907Z,26.95
2022-08-16T10:28:28.571Z,26.69
2022-08-16T10:32:35.083Z,26.69
2022-08-16T10:36:39.237Z,26.59
2022-08-16T10:40:45.487Z,26.57
2022-08-16T10:44:54.779Z,26.50
2022-08-16T10:48:57.212Z,26.57
2022-08-16T10:53:04.908Z,26.48
2022-08-16T10:57:12.052Z,26.46
2022-08-16T11:01:39.824Z,26.14
2022-08-16T11:14:25.852Z,26.18
2022-08-16T11:19:03.237Z,26.20
2022-08-16T11:22:52.070Z,26.31
2022-08-16T11:31:17.859Z,26.54
2022-08-16T11:39:47.006Z,26.28
2022-08-16T11:43:58.006Z,26.32
2022-08-16T11:48:00.490Z,26.26
2022-08-16T11:52:02.860Z,26.34
2022-08-16T11:56:06.310Z,26.30
2022-08-16T12:00:33.984Z,26.26
2022-08-16T12:04:39.693Z,26.48
2022-08-16T12:08:46.270Z,26.39
2022-08-16T12:13:02.828Z,26.24
2022-08-16T12:17:20.890Z,26.22
2022-08-16T12:21:24.250Z,26.27
2022-08-16T12:25:28.866Z,26.36
2022-08-16T12:29:32.265Z,26.32
2022-08-16T12:33:44.654Z,26.20
2022-08-16T12:37:48.877Z,26.34
2022-08-16T12:46:42.727Z,26.51
2022-08-16T12:51:59.000Z,26.62
2022-08-16T13:01:57.969Z,26.93
2022-08-16T13:06:01.247Z,26.87
2022-08-16T13:10:21.097Z,26.71
2022-08-16T13:14:56.053Z,26.61
2022-08-16T13:18:58.356Z,26.61
2022-08-16T13:23:03.564Z,26.46
2022-08-16T13:27:06.630Z,26.63
2022-08-16T13:31:08.665Z,26.80
2022-08-16T13:35:11.664Z,26.91
2022-08-16T13:39:14.138Z,26.88
2022-08-16T13:43:17.151Z,26.95
2022-08-16T13:47:19.500Z,27.33
2022-08-16T13:51:29.289Z,27.06
2022-08-16T13:55:33.357Z,27.36
2022-08-16T13:59:35.664Z,27.46
2022-08-16T14:03:40.807Z,27.77
2022-08-16T14:07:43.065Z,27.80
2022-08-16T14:11:53.406Z,28.19
2022-08-16T14:15:56.002Z,28.17
2022-08-16T14:19:59.781Z,28.58
2022-08-16T14:24:12.918Z,28.67
2022-08-16T14:28:26.068Z,28.50
2022-08-16T14:32:33.274Z,28.49
2022-08-16T14:36:36.844Z,28.52
2022-08-16T14:40:43.654Z,28.59
2022-08-16T14:44:50.414Z,28.77
2022-08-16T14:48:53.375Z,28.96
2022-08-16T14:53:07.764Z,28.87
2022-08-16T14:57:10.240Z,28.72
2022-08-16T15:01:12.753Z,28.55
2022-08-16T15:05:15.483Z,28.69
2022-08-16T15:09:18.411Z,28.56
2022-08-16T15:13:21.730Z,28.72
2022-08-16T15:17:34.038Z,28.67
2022-08-16T15:21:39.891Z,28.71
2022-08-16T15:25:47.122Z,28.91
2022-08-16T15:30:01.894Z,28.98
2022-08-16T15:34:26.390Z,29.12
2022-08-16T15:38:57.435Z,29.25
2022-08-16T15:42:55.006Z,29.39
2022-08-16T15:47:02.761Z,30.17
2022-08-16T15:51:08.304Z,31.00
2022-08-16T15:55:23.489Z,31.95
2022-08-16T15:59:34.867Z,32.66
2022-08-16T16:03:51.830Z,31.95
2022-08-16T16:07:56.320Z,30.53
2022-08-16T16:11:59.568Z,29.55
2022-08-16T16:16:03.471Z,29.08
2022-08-16T16:20:14.584Z,28.50
2022-08-16T16:24:21.348Z,27.87
2022-08-16T16:28:46.307Z,27.80
2022-08-16T16:32:49.983Z,27.61
2022-08-16T16:36:52.367Z,27.33
2022-08-16T16:41:02.303Z,27.12
2022-08-16T16:45:08.037Z,27.07
2022-08-16T16:49:14.706Z,26.82
2022-08-16T16:53:18.149Z,26.94
2022-08-16T16:57:43.596Z,26.79
2022-08-16T17:02:00.377Z,26.64
2022-08-16T17:06:14.354Z,26.67
2022-08-16T17:10:45.572Z,26.57
2022-08-16T17:14:42.660Z,26.36
2022-08-16T17:19:15.269Z,26.16
2022-08-16T17:23:07.480Z,25.92
2022-08-16T17:27:11.632Z,25.81
2022-08-16T17:31:20.075Z,25.59
2022-08-16T17:35:55.625Z,25.14
2022-08-16T17:40:00.743Z,24.83
2022-08-16T17:44:10.699Z,24.61
2022-08-16T17:48:13.189Z,24.38
2022-08-16T17:52:15.734Z,24.33
2022-08-16T17:56:17.798Z,24.18
2022-08-16T18:00:21.832Z,23.96
2022-08-16T18:04:48.384Z,23.79
2022-08-16T18:08:48.865Z,23.62
2022-08-16T18:12:55.988Z,23.65
2022-08-16T18:16:58.444Z,23.52
2022-08-16T18:21:18.983Z,23.50
2022-08-16T18:25:21.471Z,23.50
2022-08-16T18:29:23.540Z,23.43
2022-08-16T18:33:27.471Z,23.48
2022-08-16T18:37:29.632Z,23.44
2022-08-16T18:41:38.231Z,23.39
2022-08-16T18:45:43.422Z,23.36
2022-08-16T18:49:45.798Z,23.38
2022-08-16T18:53:47.925Z,23.37
2022-08-16T18:57:51.045Z,23.34
2022-08-16T19:01:53.438Z,23.30
2022-08-16T19:06:06.567Z,23.32
2022-08-16T19:10:12.652Z,23.22
2022-08-16T19:14:14.949Z,23.13
2022-08-16T19:18:17.026Z,23.11
2022-08-16T19:22:52.094Z,23.00
2022-08-16T19:26:53.017Z,22.91
2022-08-16T19:30:55.605Z,22.83
2022-08-16T19:34:59.967Z,22.81
2022-08-16T19:39:06.619Z,22.68
2022-08-16T19:43:10.776Z,22.58
2022-08-16T19:47:13.567Z,22.62
2022-08-16T19:51:16.715Z,22.55
2022-08-16T19:55:22.422Z,22.46
2022-08-16T19:59:39.984Z,22.35
2022-08-16T20:03:42.984Z,22.32
2022-08-16T20:07:45.650Z,22.17
2022-08-16T20:11:49.707Z,22.09
2022-08-16T20:15:51.924Z,22.01
2022-08-16T20:19:54.604Z,22.00
2022-08-16T20:24:15.763Z,21.88
2022-08-16T20:28:40.106Z,21.50
2022-08-16T20:32:43.503Z,21.46
2022-08-16T20:36:45.824Z,21.48
2022-08-16T20:40:48.250Z,21.42
2022-08-16T20:44:54.140Z,21.34
2022-08-16T20:48:56.293Z,21.05
2022-08-16T20:52:58.978Z,21.28
2022-08-16T20:57:01.226Z,21.35
2022-08-16T21:01:05.744Z,21.28
2022-08-16T21:05:09.828Z,21.31
2022-08-16T21:09:12.135Z,21.25
2022-08-16T21:13:14.101Z,21.18
2022-08-16T21:17:17.226Z,21.22
2022-08-16T21:21:19.213Z,21.26
2022-08-16T21:25:26.667Z,21.20
2022-08-16T21:29:39.882Z,21.09
2022-08-16T21:33:55.110Z,21.03
2022-08-16T21:38:03.118Z,20.97
2022-08-16T21:42:20.306Z,20.77
2022-08-16T21:46:22.236Z,20.82
2022-08-16T21:50:24.489Z,20.90
2022-08-16T21:54:26.632Z,20.85
2022-08-16T21:58:30.092Z,20.81
2022-08-16T22:02:35.784Z,20.85
2022-08-16T22:06:41.410Z,20.84
2022-08-16T22:11:07.283Z,20.75
2022-08-16T22:15:07.130Z,20.68
2022-08-16T22:19:11.819Z,20.66
2022-08-16T22:23:26.166Z,20.70
2022-08-16T22:27:28.788Z,20.65
2022-08-16T22:31:31.330Z,20.49
2022-08-16T22:35:33.658Z,20.53
2022-08-16T22:39:37.241Z,20.58
2022-08-16T22:43:39.910Z,20.63
2022-08-16T22:47:42.639Z,20.56
2022-08-16T22:51:44.664Z,20.54
2022-08-16T22:55:47.125Z,20.36
2022-08-16T22:59:49.196Z,20.35
2022-08-16T23:03:56.107Z,20.39
2022-08-16T23:07:58.218Z,20.40
2022-08-16T23:12:06.316Z,20.19
2022-08-16T23:16:11.009Z,20.24
2022-08-16T23:20:14.018Z,20.25
2022-08-16T23:24:20.605Z,20.11
2022-08-16T23:28:29.524Z,20.15
2022-08-16T23:32:31.580Z,19.93
2022-08-16T23:36:34.576Z,19.88
2022-08-16T23:40:38.508Z,19.97
2022-08-16T23:44:55.431Z,20.01
2022-08-16T23:49:58.989Z,19.85
2022-08-16T23:53:33.420Z,20.00
2022-08-16T23:57:35.564Z,20.03
